createdAt,value
2024-05-09T00:00:35.786Z,101986.03
2024-05-09T00:03:10.502Z,102022.84
2024-05-09T00:05:40.438Z,101995.59
2024-05-09T00:08:08.213Z,102019.97
2024-05-09T00:10:37.692Z,102017.41
2024-05-09T00:13:06.784Z,102009.81
2024-05-09T00:15:34.158Z,102013.91
2024-05-09T00:18:01.922Z,101980.13
2024-05-09T00:20:36.833Z,101992.13
2024-05-09T00:23:10.545Z,102019.44
2024-05-09T00:25:37.978Z,102005.44
2024-05-09T00:28:05.328Z,102012.88
2024-05-09T00:30:35.363Z,102017.88
2024-05-09T00:33:08.166Z,102008.19
2024-05-09T00:35:36.340Z,102007.25
2024-05-09T00:38:03.572Z,102006.38
2024-05-09T00:40:40.390Z,102013.59
2024-05-09T00:43:10.101Z,102006.88
2024-05-09T00:45:37.197Z,101982.22
2024-05-09T00:48:07.472Z,102003.19
2024-05-09T00:50:37.991Z,102004.28
2024-05-09T00:53:09.955Z,102000.16
2024-05-09T00:55:37.750Z,101991.69
2024-05-09T00:58:05.984Z,102001.72
2024-05-09T01:00:38.903Z,102003.44
2024-05-09T01:03:08.805Z,102005.28
2024-05-09T01:05:39.186Z,101999.72
2024-05-09T01:08:06.852Z,101999.00
2024-05-09T01:10:35.266Z,102005.38
2024-05-09T01:13:07.112Z,101973.28
2024-05-09T01:15:34.400Z,101999.16
2024-05-09T01:18:11.058Z,101995.59
2024-05-09T01:20:42.379Z,101981.00
2024-05-09T01:23:13.979Z,101966.75
2024-05-09T01:25:42.179Z,101994.78
2024-05-09T01:28:08.701Z,102002.97
2024-05-09T01:30:37.368Z,101992.91
2024-05-09T01:33:07.288Z,102001.06
2024-05-09T01:35:35.680Z,101995.72
2024-05-09T01:38:02.515Z,102000.34
2024-05-09T01:40:36.819Z,101956.56
2024-05-09T01:43:06.433Z,101980.94
2024-05-09T01:45:33.120Z,101962.31
2024-05-09T01:47:59.950Z,101992.69
2024-05-09T01:50:37.395Z,101998.09
2024-05-09T01:53:08.102Z,101990.13
2024-05-09T01:55:34.782Z,101988.09
2024-05-09T01:58:01.368Z,101995.19
2024-05-09T02:00:37.882Z,101993.75
2024-05-09T02:03:15.582Z,101991.19
2024-05-09T02:05:48.265Z,101994.59
2024-05-09T02:08:19.888Z,101962.97
2024-05-09T02:10:47.982Z,101966.88
2024-05-09T02:13:15.540Z,101963.66
2024-05-09T02:15:42.289Z,101959.81
2024-05-09T02:18:10.260Z,101996.94
2024-05-09T02:20:44.141Z,101980.41
2024-05-09T02:23:11.046Z,101987.88
2024-05-09T02:25:37.862Z,101985.75
2024-05-09T02:28:04.621Z,101996.34
2024-05-09T02:30:39.271Z,101968.97
2024-05-09T02:33:09.953Z,101996.19
2024-05-09T02:35:38.299Z,101987.56
2024-05-09T02:38:04.992Z,101971.38
2024-05-09T02:40:36.965Z,101988.41
2024-05-09T02:43:06.810Z,101971.38
2024-05-09T02:45:33.574Z,101947.41
2024-05-09T02:48:00.776Z,101984.56
2024-05-09T02:50:34.516Z,101993.16
2024-05-09T02:53:06.340Z,101976.72
2024-05-09T02:55:33.232Z,101985.25
2024-05-09T02:58:00.113Z,101955.50
2024-05-09T03:00:35.070Z,101974.06
2024-05-09T03:03:08.305Z,101947.63
2024-05-09T03:05:35.902Z,101963.31
2024-05-09T03:08:02.655Z,101968.06
2024-05-09T03:10:35.319Z,101988.50
2024-05-09T03:13:14.726Z,101987.97
2024-05-09T03:15:42.945Z,101987.81
2024-05-09T03:18:09.887Z,101974.09
2024-05-09T03:20:37.830Z,101988.22
2024-05-09T03:23:06.320Z,101981.25
2024-05-09T03:25:33.471Z,101993.00
2024-05-09T03:28:00.134Z,101987.72
2024-05-09T03:30:38.428Z,101989.47
2024-05-09T03:33:16.784Z,101977.09
2024-05-09T03:35:44.225Z,101983.50
2024-05-09T03:38:11.129Z,101964.03
2024-05-09T03:40:47.176Z,101945.75
2024-05-09T03:43:14.390Z,101982.25
2024-05-09T03:45:42.924Z,101981.66
2024-05-09T03:48:09.763Z,101953.75
2024-05-09T03:50:37.321Z,101917.66
2024-05-09T03:53:04.674Z,101917.34
2024-05-09T03:55:31.765Z,101973.72
2024-05-09T03:57:58.426Z,101953.41
2024-05-09T04:00:31.665Z,101983.84
2024-05-09T04:03:06.282Z,101918.16
2024-05-09T04:05:34.977Z,101968.66
2024-05-09T04:08:01.817Z,101983.34
2024-05-09T04:10:33.441Z,101943.34
2024-05-09T04:13:01.646Z,101957.88
2024-05-09T04:15:28.331Z,101988.56
2024-05-09T04:17:55.532Z,101986.88
2024-05-09T04:20:33.055Z,101948.75
2024-05-09T04:23:06.198Z,101989.66
2024-05-09T04:25:33.067Z,101989.56
2024-05-09T04:27:59.600Z,101981.09
2024-05-09T04:30:34.891Z,101983.59
2024-05-09T04:33:06.348Z,101975.09
2024-05-09T04:35:33.825Z,101978.66
2024-05-09T04:38:00.589Z,101951.22
2024-05-09T04:40:33.175Z,101985.75
2024-05-09T04:43:03.614Z,101986.53
2024-05-09T04:45:30.354Z,101951.53
2024-05-09T04:47:57.055Z,101976.28
2024-05-09T04:50:32.745Z,101982.91
2024-05-09T04:53:03.662Z,101953.47
2024-05-09T04:55:30.463Z,101991.00
2024-05-09T04:57:57.039Z,101986.75
2024-05-09T05:00:32.381Z,101984.50
2024-05-09T05:03:08.260Z,101989.41
2024-05-09T05:05:42.874Z,101986.97
2024-05-09T05:08:17.953Z,101987.94
2024-05-09T05:10:46.597Z,101958.81
2024-05-09T05:13:20.159Z,101995.09
2024-05-09T05:15:55.584Z,101964.59
2024-05-09T05:18:23.155Z,101987.41
2024-05-09T05:20:50.227Z,101997.59
2024-05-09T05:23:20.115Z,101987.81
2024-05-09T05:25:48.658Z,101992.41
2024-05-09T05:28:16.230Z,101992.53
2024-05-09T05:30:42.831Z,101997.41
2024-05-09T05:33:14.703Z,101966.91
2024-05-09T05:35:42.484Z,101967.53
2024-05-09T05:38:10.103Z,101960.56
2024-05-09T05:40:38.572Z,101951.75
2024-05-09T05:43:10.584Z,101992.97
2024-05-09T05:45:37.896Z,101987.06
2024-05-09T05:48:06.363Z,101955.78
2024-05-09T05:50:36.705Z,101972.78
2024-05-09T05:53:07.374Z,101985.53
2024-05-09T05:55:34.888Z,101993.91
2024-05-09T05:58:02.097Z,101993.78
2024-05-09T06:00:35.019Z,101993.63
2024-05-09T06:03:05.427Z,101968.25
2024-05-09T06:05:32.474Z,101990.91
2024-05-09T06:07:59.480Z,101970.41
2024-05-09T06:10:30.604Z,101995.59
2024-05-09T06:13:04.964Z,101992.44
2024-05-09T06:15:31.507Z,101986.78
2024-05-09T06:17:58.335Z,101953.06
2024-05-09T06:20:34.549Z,101977.06
2024-05-09T06:23:04.192Z,101985.25
2024-05-09T06:25:30.916Z,101954.91
2024-05-09T06:27:57.414Z,101950.34
2024-05-09T06:30:30.556Z,101986.75
2024-05-09T06:33:05.341Z,101977.63
2024-05-09T06:35:32.899Z,101974.00
2024-05-09T06:37:59.579Z,101970.03
2024-05-09T06:40:34.456Z,101983.72
2024-05-09T06:43:04.824Z,101957.91
2024-05-09T06:45:31.382Z,101992.84
2024-05-09T06:47:58.147Z,101982.50
2024-05-09T06:50:28.313Z,101983.38
2024-05-09T06:52:58.313Z,101993.09
2024-05-09T06:55:24.908Z,101991.53
2024-05-09T06:57:51.416Z,101981.50
2024-05-09T07:00:26.845Z,101959.50
2024-05-09T07:02:59.055Z,101962.94
2024-05-09T07:05:26.835Z,101982.03
2024-05-09T07:07:53.580Z,101974.34
2024-05-09T07:10:28.469Z,101982.38
2024-05-09T07:12:59.381Z,101974.78
2024-05-09T07:15:25.929Z,101969.41
2024-05-09T07:17:52.773Z,101997.28
2024-05-09T07:20:27.619Z,101999.06
2024-05-09T07:23:00.684Z,102005.13
2024-05-09T07:25:27.253Z,101999.88
2024-05-09T07:27:53.757Z,101993.41
2024-05-09T07:30:27.628Z,101997.91
2024-05-09T07:32:59.924Z,101971.72
2024-05-09T07:35:26.860Z,101997.41
2024-05-09T07:37:53.602Z,101981.78
2024-05-09T07:42:49.664Z,101975.78
2024-05-09T07:45:39.090Z,101982.97
2024-05-09T07:52:23.102Z,101988.63
2024-05-09T07:53:39.168Z,101992.38
2024-05-09T07:56:09.956Z,101993.06
2024-05-09T07:58:37.402Z,101953.72
2024-05-09T08:01:04.276Z,101996.88
2024-05-09T08:03:33.981Z,101984.44
2024-05-09T08:06:01.244Z,101966.31
2024-05-09T08:08:27.801Z,101975.09
2024-05-09T08:10:54.452Z,101995.28
2024-05-09T08:13:21.161Z,101967.16
2024-05-09T08:15:48.608Z,101986.84
2024-05-09T08:18:15.355Z,101970.75
2024-05-09T08:20:42.086Z,101982.13
2024-05-09T08:23:08.602Z,101952.25
2024-05-09T08:25:36.374Z,101972.31
2024-05-09T08:28:04.673Z,101975.41
2024-05-09T08:30:36.720Z,101970.06
2024-05-09T08:33:06.277Z,101970.38
2024-05-09T08:35:33.636Z,101961.00
2024-05-09T08:38:02.312Z,101964.13
2024-05-09T08:40:34.444Z,101945.44
2024-05-09T08:43:10.450Z,101941.28
2024-05-09T08:45:42.589Z,101928.94
2024-05-09T08:48:12.357Z,101964.59
2024-05-09T08:50:40.742Z,101963.59
2024-05-09T08:53:08.067Z,101964.91
2024-05-09T08:55:37.380Z,101970.94
2024-05-09T08:58:07.513Z,101965.00
2024-05-09T09:00:37.302Z,101968.53
2024-05-09T09:03:07.112Z,101977.00
2024-05-09T09:05:38.520Z,101972.34
2024-05-09T09:08:09.023Z,101970.44
2024-05-09T09:10:38.078Z,101973.47
2024-05-09T09:13:07.214Z,101975.28
2024-05-09T09:15:33.928Z,101966.41
2024-05-09T09:18:01.254Z,101971.69
2024-05-09T09:20:35.778Z,101958.09
2024-05-09T09:23:04.696Z,101949.25
2024-05-09T09:25:32.114Z,101953.47
2024-05-09T09:27:59.151Z,101954.25
2024-05-09T09:30:36.260Z,101955.25
2024-05-09T09:33:06.377Z,101958.53
2024-05-09T09:35:34.182Z,101956.53
2024-05-09T09:38:05.812Z,101949.13
2024-05-09T09:40:37.337Z,101943.75
2024-05-09T09:43:14.421Z,101937.78
2024-05-09T09:45:43.229Z,101955.97
2024-05-09T09:48:11.982Z,101950.25
2024-05-09T09:50:40.014Z,101954.69
2024-05-09T09:53:07.939Z,101947.00
2024-05-09T09:55:35.575Z,101935.41
2024-05-09T09:58:04.016Z,101950.13
2024-05-09T10:00:33.334Z,101939.75
2024-05-09T10:03:01.339Z,101941.00
2024-05-09T10:05:28.849Z,101942.31
2024-05-09T10:07:57.397Z,101939.31
2024-05-09T10:10:31.885Z,101945.91
2024-05-09T10:13:03.944Z,101933.63
2024-05-09T10:15:42.761Z,101903.22
2024-05-09T10:18:09.480Z,101945.91
2024-05-09T10:20:49.266Z,101932.72
2024-05-09T10:23:25.863Z,101931.88
2024-05-09T10:26:10.311Z,101934.38
2024-05-09T10:28:42.601Z,101928.53
2024-05-09T10:31:11.420Z,101926.56
2024-05-09T10:33:52.485Z,101900.72
2024-05-09T10:36:20.738Z,101926.66
2024-05-09T10:38:48.962Z,101916.47
2024-05-09T10:41:19.077Z,101922.13
2024-05-09T10:43:46.370Z,101916.16
2024-05-09T10:46:14.667Z,101910.72
2024-05-09T10:48:43.337Z,101909.66
2024-05-09T10:51:10.628Z,101913.44
2024-05-09T10:53:45.240Z,101882.03
2024-05-09T10:56:14.229Z,101900.44
2024-05-09T10:58:40.949Z,101894.19
2024-05-09T11:01:09.054Z,101901.94
2024-05-09T11:03:36.660Z,101867.59
2024-05-09T11:06:03.743Z,101891.06
2024-05-09T11:08:32.424Z,101885.94
2024-05-09T11:10:59.853Z,101889.94
2024-05-09T11:13:27.900Z,101867.38
2024-05-09T11:15:54.767Z,101887.13
2024-05-09T11:18:25.455Z,101894.94
2024-05-09T11:20:54.047Z,101883.06
2024-05-09T11:23:22.472Z,101878.72
2024-05-09T11:25:50.065Z,101887.00
2024-05-09T11:28:21.037Z,101865.81
2024-05-09T11:30:48.797Z,101873.50
2024-05-09T11:33:17.410Z,101877.38
2024-05-09T11:35:45.624Z,101871.19
2024-05-09T11:38:12.731Z,101869.13
2024-05-09T11:40:39.543Z,101860.16
2024-05-09T11:43:06.459Z,101843.69
2024-05-09T11:45:33.099Z,101844.13
2024-05-09T11:47:59.906Z,101854.25
2024-05-09T11:50:32.733Z,101857.88
2024-05-09T11:53:02.150Z,101830.91
2024-05-09T11:55:28.991Z,101855.13
2024-05-09T11:57:55.804Z,101855.38
2024-05-09T12:00:29.711Z,101844.56
2024-05-09T12:03:04.981Z,101850.44
2024-05-09T12:05:32.291Z,101854.66
2024-05-09T12:07:59.039Z,101831.97
2024-05-09T12:10:32.717Z,101850.41
2024-05-09T12:13:02.101Z,101850.22
2024-05-09T12:15:29.149Z,101812.88
2024-05-09T12:17:58.357Z,101847.44
2024-05-09T12:20:35.156Z,101836.84
2024-05-09T12:23:05.158Z,101836.50
2024-05-09T12:25:31.696Z,101841.28
2024-05-09T12:27:58.389Z,101838.63
2024-05-09T12:30:33.156Z,101831.72
2024-05-09T12:33:04.915Z,101836.94
2024-05-09T12:35:31.719Z,101832.66
2024-05-09T12:37:58.466Z,101832.53
2024-05-09T12:40:34.269Z,101829.06
2024-05-09T12:43:04.604Z,101821.03
2024-05-09T12:45:31.609Z,101827.16
2024-05-09T12:47:58.485Z,101818.13
2024-05-09T12:50:31.732Z,101812.19
2024-05-09T12:53:00.455Z,101813.00
2024-05-09T12:55:28.133Z,101795.97
2024-05-09T12:57:55.047Z,101788.53
2024-05-09T13:00:28.156Z,101795.84
2024-05-09T13:03:00.348Z,101781.72
2024-05-09T13:05:27.369Z,101801.00
2024-05-09T13:07:54.100Z,101794.75
2024-05-09T13:10:29.022Z,101788.16
2024-05-09T13:12:59.312Z,101788.19
2024-05-09T13:15:26.045Z,101791.00
2024-05-09T13:17:52.827Z,101797.50
2024-05-09T13:20:28.877Z,101791.19
2024-05-09T13:23:01.644Z,101796.72
2024-05-09T13:25:28.251Z,101794.84
2024-05-09T13:27:55.085Z,101791.78
2024-05-09T13:30:29.336Z,101797.72
2024-05-09T13:33:04.836Z,101793.84
2024-05-09T13:35:32.174Z,101794.75
2024-05-09T13:37:58.858Z,101781.13
2024-05-09T13:40:32.340Z,101774.88
2024-05-09T13:43:01.978Z,101783.41
2024-05-09T13:45:28.787Z,101779.00
2024-05-09T13:47:55.636Z,101766.25
2024-05-09T13:50:31.025Z,101787.41
2024-05-09T13:53:01.885Z,101787.41
2024-05-09T13:55:28.599Z,101789.22
2024-05-09T13:57:55.414Z,101776.00
2024-05-09T14:00:37.630Z,101756.06
2024-05-09T14:03:09.298Z,101762.44
2024-05-09T14:05:36.201Z,101779.06
2024-05-09T14:08:03.146Z,101767.13
2024-05-09T14:10:31.854Z,101776.75
2024-05-09T14:12:59.701Z,101764.69
2024-05-09T14:15:26.475Z,101744.19
2024-05-09T14:17:53.496Z,101760.47
2024-05-09T14:20:29.926Z,101755.38
2024-05-09T14:22:58.933Z,101752.69
2024-05-09T14:25:28.212Z,101733.22
2024-05-09T14:27:54.925Z,101753.00
2024-05-09T14:30:30.469Z,101742.59
2024-05-09T14:33:03.198Z,101743.88
2024-05-09T14:35:29.945Z,101746.13
2024-05-09T14:37:56.864Z,101737.00
2024-05-09T14:40:36.628Z,101738.91
2024-05-09T14:43:08.382Z,101737.69
2024-05-09T14:45:35.433Z,101739.72
2024-05-09T14:48:02.803Z,101729.41
2024-05-09T14:50:35.836Z,101711.50
2024-05-09T14:53:06.832Z,101724.63
2024-05-09T14:55:36.713Z,101697.78
2024-05-09T14:58:06.383Z,101733.38
2024-05-09T15:00:36.334Z,101731.81
2024-05-09T15:03:05.164Z,101676.59
2024-05-09T15:05:32.012Z,101725.19
2024-05-09T15:07:58.853Z,101702.94
2024-05-09T15:10:33.806Z,101726.44
2024-05-09T15:13:02.839Z,101690.66
2024-05-09T15:15:29.769Z,101714.81
2024-05-09T15:17:56.724Z,101709.00
2024-05-09T15:20:30.755Z,101696.63
2024-05-09T15:23:01.932Z,101705.13
2024-05-09T15:25:28.655Z,101716.41
2024-05-09T15:27:55.528Z,101692.53
2024-05-09T15:30:30.037Z,101701.59
2024-05-09T15:32:59.145Z,101701.44
2024-05-09T15:35:25.705Z,101705.22
2024-05-09T15:37:52.271Z,101661.22
2024-05-09T15:40:26.614Z,101697.03
2024-05-09T15:43:02.504Z,101714.13
2024-05-09T15:45:29.526Z,101691.00
2024-05-09T15:47:57.140Z,101674.16
2024-05-09T15:50:35.165Z,101699.25
2024-05-09T15:53:05.786Z,101707.50
2024-05-09T15:55:35.254Z,101683.28
2024-05-09T15:58:03.423Z,101708.53
2024-05-09T16:00:38.346Z,101709.91
2024-05-09T16:03:09.134Z,101703.00
2024-05-09T16:05:36.613Z,101702.63
2024-05-09T16:08:03.687Z,101711.25
2024-05-09T16:10:33.106Z,101700.69
2024-05-09T16:13:01.565Z,101699.16
2024-05-09T16:15:28.525Z,101698.84
2024-05-09T16:17:55.287Z,101667.19
2024-05-09T16:20:33.704Z,101686.25
2024-05-09T16:23:05.695Z,101688.66
2024-05-09T16:25:32.402Z,101693.94
2024-05-09T16:27:59.095Z,101692.47
2024-05-09T16:30:32.117Z,101682.13
2024-05-09T16:33:02.680Z,101688.06
2024-05-09T16:35:29.554Z,101704.00
2024-05-09T16:37:56.136Z,101702.97
2024-05-09T16:40:30.278Z,101701.84
2024-05-09T16:43:04.282Z,101704.09
2024-05-09T16:45:31.346Z,101701.28
2024-05-09T16:47:59.361Z,101702.38
2024-05-09T16:50:31.120Z,101667.75
2024-05-09T16:52:59.989Z,101695.56
2024-05-09T16:55:26.789Z,101703.28
2024-05-09T16:57:53.492Z,101699.66
2024-05-09T17:00:31.048Z,101669.75
2024-05-09T17:03:06.194Z,101695.78
2024-05-09T17:05:33.555Z,101696.66
2024-05-09T17:08:01.119Z,101686.13
2024-05-09T17:10:32.653Z,101691.34
2024-05-09T17:13:01.432Z,101689.34
2024-05-09T17:15:28.115Z,101683.22
2024-05-09T17:17:55.120Z,101693.66
2024-05-09T17:20:29.525Z,101672.38
2024-05-09T17:23:01.570Z,101645.44
2024-05-09T17:25:28.368Z,101695.97
2024-05-09T17:27:55.368Z,101665.13
2024-05-09T17:30:29.066Z,101684.63
2024-05-09T17:33:02.153Z,101669.44
2024-05-09T17:35:28.907Z,101687.56
2024-05-09T17:37:55.498Z,101692.53
2024-05-09T17:40:30.774Z,101693.56
2024-05-09T17:43:01.159Z,101685.75
2024-05-09T17:45:27.833Z,101662.75
2024-05-09T17:47:54.673Z,101679.88
2024-05-09T17:50:27.629Z,101643.44
2024-05-09T17:53:00.726Z,101689.59
2024-05-09T17:55:27.580Z,101683.03
2024-05-09T17:57:54.503Z,101682.50
2024-05-09T18:00:29.286Z,101688.94
2024-05-09T18:03:04.323Z,101687.78
2024-05-09T18:05:31.402Z,101686.41
2024-05-09T18:07:58.175Z,101680.75
2024-05-09T18:10:32.571Z,101696.63
2024-05-09T18:13:03.270Z,101694.91
2024-05-09T18:15:29.907Z,101676.47
2024-05-09T18:17:56.660Z,101700.56
2024-05-09T18:20:32.246Z,101668.63
2024-05-09T18:23:06.643Z,101690.91
2024-05-09T18:25:33.193Z,101696.22
2024-05-09T18:28:02.229Z,101701.34
2024-05-09T18:30:34.399Z,101672.41
2024-05-09T18:33:03.187Z,101665.22
2024-05-09T18:35:29.876Z,101688.31
2024-05-09T18:37:56.420Z,101689.88
2024-05-09T18:40:31.279Z,101687.03
2024-05-09T18:43:02.026Z,101682.88
2024-05-09T18:45:29.106Z,101687.84
2024-05-09T18:47:56.065Z,101696.78
2024-05-09T18:50:31.874Z,101693.56
2024-05-09T18:53:03.400Z,101704.19
2024-05-09T18:55:29.919Z,101700.06
2024-05-09T18:57:57.097Z,101696.53
2024-05-09T19:00:33.216Z,101696.53
2024-05-09T19:03:05.500Z,101702.00
2024-05-09T19:05:33.247Z,101705.69
2024-05-09T19:08:00.251Z,101697.06
2024-05-09T19:10:33.701Z,101711.59
2024-05-09T19:13:04.316Z,101677.50
2024-05-09T19:15:33.664Z,101713.03
2024-05-09T19:18:00.613Z,101705.63
2024-05-09T19:20:33.145Z,101702.78
2024-05-09T19:23:01.364Z,101698.91
2024-05-09T19:25:27.873Z,101712.91
2024-05-09T19:27:54.484Z,101709.94
2024-05-09T19:30:29.771Z,101708.78
2024-05-09T19:33:04.731Z,101719.19
2024-05-09T19:35:31.429Z,101708.56
2024-05-09T19:37:58.433Z,101711.16
2024-05-09T19:40:31.245Z,101707.91
2024-05-09T19:43:00.483Z,101715.81
2024-05-09T19:45:27.175Z,101674.59
2024-05-09T19:47:53.926Z,101720.22
2024-05-09T19:50:27.058Z,101708.00
2024-05-09T19:53:02.619Z,101718.81
2024-05-09T19:55:29.261Z,101709.19
2024-05-09T19:57:55.927Z,101684.75
2024-05-09T20:00:29.221Z,101711.44
2024-05-09T20:03:02.024Z,101690.03
2024-05-09T20:05:30.754Z,101710.28
2024-05-09T20:07:57.596Z,101706.53
2024-05-09T20:10:29.784Z,101699.81
2024-05-09T20:12:59.334Z,101701.88
2024-05-09T20:15:26.015Z,101589.44
2024-05-09T20:17:52.671Z,101707.06
2024-05-09T20:20:28.356Z,101698.50
2024-05-09T20:23:03.218Z,101708.78
2024-05-09T20:25:30.007Z,101683.66
2024-05-09T20:27:56.620Z,101700.88
2024-05-09T20:30:30.547Z,101704.25
2024-05-09T20:32:59.848Z,101679.13
2024-05-09T20:35:27.017Z,101711.09
2024-05-09T20:37:53.739Z,101698.22
2024-05-09T20:40:28.353Z,101707.16
2024-05-09T20:42:59.201Z,101703.41
2024-05-09T20:45:26.324Z,101708.38
2024-05-09T20:47:53.218Z,101703.19
2024-05-09T20:50:28.424Z,101684.53
2024-05-09T20:53:02.770Z,101712.63
2024-05-09T20:55:30.042Z,101706.56
2024-05-09T20:57:57.261Z,101688.69
2024-05-09T21:00:33.694Z,101712.00
2024-05-09T21:03:06.334Z,101712.28
2024-05-09T21:05:33.687Z,101681.56
2024-05-09T21:08:01.365Z,101697.34
2024-05-09T21:10:32.670Z,101678.84
2024-05-09T21:13:01.524Z,101709.81
2024-05-09T21:15:28.582Z,101709.25
2024-05-09T21:17:55.334Z,101702.69
2024-05-09T21:20:28.686Z,101686.09
2024-05-09T21:22:58.411Z,101720.19
2024-05-09T21:25:25.117Z,101715.41
2024-05-09T21:27:51.836Z,101724.09
2024-05-09T21:30:23.151Z,101733.06
2024-05-09T21:32:58.754Z,101726.97
2024-05-09T21:35:25.283Z,101729.56
2024-05-09T21:37:51.837Z,101683.53
2024-05-09T21:40:27.003Z,101730.75
2024-05-09T21:43:00.107Z,101722.44
2024-05-09T21:45:26.718Z,101709.19
2024-05-09T21:47:53.525Z,101721.16
2024-05-09T21:50:27.520Z,101661.53
2024-05-09T21:52:58.859Z,101718.44
2024-05-09T21:55:25.469Z,101707.53
2024-05-09T21:57:52.100Z,101705.34
2024-05-09T22:00:28.622Z,101707.78
2024-05-09T22:03:01.930Z,101699.63
2024-05-09T22:05:28.692Z,101696.88
2024-05-09T22:07:55.330Z,101663.59
2024-05-09T22:10:26.533Z,101671.75
2024-05-09T22:12:59.182Z,101694.19
2024-05-09T22:15:25.863Z,101666.97
2024-05-09T22:17:52.542Z,101680.81
2024-05-09T22:20:26.009Z,101689.00
2024-05-09T22:23:00.644Z,101636.13
2024-05-09T22:25:29.692Z,101679.28
2024-05-09T22:27:57.048Z,101653.78
2024-05-09T22:30:31.181Z,101682.66
2024-05-09T22:33:01.949Z,101670.84
2024-05-09T22:35:28.496Z,101675.53
2024-05-09T22:37:55.329Z,101668.25
2024-05-09T22:40:29.524Z,101660.72
2024-05-09T22:43:05.973Z,101674.25
2024-05-09T22:45:32.786Z,101665.28
2024-05-09T22:47:59.683Z,101663.59
2024-05-09T22:50:30.542Z,101668.50
2024-05-09T22:52:59.097Z,101666.06
2024-05-09T22:55:25.589Z,101671.91
2024-05-09T22:57:52.240Z,101644.81
2024-05-09T23:00:21.846Z,101665.41
2024-05-09T23:02:52.814Z,101642.38
2024-05-09T23:05:19.628Z,101672.16
2024-05-09T23:07:46.261Z,101681.72
2024-05-09T23:10:17.377Z,101679.00
2024-05-09T23:12:51.503Z,101680.31
2024-05-09T23:15:18.159Z,101676.56
2024-05-09T23:17:44.922Z,101672.66
2024-05-09T23:20:14.449Z,101671.13
2024-05-09T23:22:41.086Z,101682.25
2024-05-09T23:25:07.765Z,101673.59
2024-05-09T23:27:34.603Z,101673.81
2024-05-09T23:30:01.239Z,101677.22
2024-05-09T23:32:27.856Z,101668.00
2024-05-09T23:34:54.521Z,101668.00
2024-05-09T23:37:21.162Z,101662.69
2024-05-09T23:39:47.793Z,101669.53
2024-05-09T23:42:14.408Z,101658.94
2024-05-09T23:44:40.945Z,101667.22
2024-05-09T23:47:10.656Z,101648.19
2024-05-09T23:49:37.546Z,101608.38
2024-05-09T23:52:05.436Z,101650.13
2024-05-09T23:54:32.095Z,101656.19
2024-05-09T23:56:58.628Z,101656.47
2024-05-09T23:59:25.138Z,101654.75
